Time;durP1;ratioP1;P1;durP2;ratioP2;P2;SDS_P1;SDS_P2;PMS_P1;PMS_P2;Temp;Humidity;BMP_temperature;BMP_pressure;BME280_temperature;BME280_humidity;BME280_pressure;Samples;Min_cycle;Max_cycle;Signal;HPM_P1;HPM_P2
2023/08/22 00:02:00;;;;;;;6.85;3.35;;;;;;;-148.15;100.00;61821.78;4972282;28;20022;-90
2023/08/22 00:04:25;;;;;;;4.77;3.27;;;;;;;-148.15;100.00;61821.78;4971949;28;20035;-90
2023/08/22 00:06:51;;;;;;;5.83;3.43;;;;;;;-148.15;100.00;61821.78;4972545;28;20030;-90
2023/08/22 00:09:17;;;;;;;7.27;3.70;;;;;;;-148.15;100.00;61821.78;4972033;28;20034;-90
2023/08/22 00:11:42;;;;;;;4.57;3.37;;;;;;;-148.15;100.00;61821.78;4971332;28;20304;-90
2023/08/22 00:14:07;;;;;;;5.20;3.70;;;;;;;-148.15;100.00;61821.78;4976448;28;20034;-90
2023/08/22 00:16:33;;;;;;;11.07;3.97;;;;;;;-148.15;100.00;61821.78;4990614;28;20023;-90
2023/08/22 00:18:58;;;;;;;4.40;3.13;;;;;;;-148.15;100.00;61821.78;4990670;28;20026;-90
2023/08/22 00:21:24;;;;;;;6.40;3.70;;;;;;;-148.15;100.00;61821.78;4975896;28;20037;-90
2023/08/22 00:23:49;;;;;;;6.07;3.35;;;;;;;-148.15;100.00;61821.78;4971345;28;20026;-89
2023/08/22 00:26:15;;;;;;;7.43;3.57;;;;;;;-148.15;100.00;61821.78;4970756;28;20030;-90
2023/08/22 00:28:40;;;;;;;4.75;3.20;;;;;;;-148.15;100.00;61821.78;4970961;28;20445;-90
2023/08/22 00:31:06;;;;;;;4.80;3.00;;;;;;;-148.15;100.00;61821.78;4980749;28;20041;-90
2023/08/22 00:33:31;;;;;;;9.27;3.40;;;;;;;-148.15;100.00;61821.78;4990733;28;20072;-90
2023/08/22 00:35:56;;;;;;;6.53;3.07;;;;;;;-148.15;100.00;61821.78;4989424;28;20035;-90
2023/08/22 00:38:22;;;;;;;4.83;3.13;;;;;;;-148.15;100.00;61821.78;4979073;28;20026;-90
2023/08/22 00:40:47;;;;;;;7.38;3.10;;;;;;;-148.15;100.00;61821.78;4990153;28;20390;-87
2023/08/22 00:43:13;;;;;;;6.03;3.20;;;;;;;-148.15;100.00;61821.78;4991085;28;20121;-87
2023/08/22 00:45:40;;;;;;;9.77;3.37;;;;;;;-148.15;100.00;61821.78;4989369;28;20109;-88
2023/08/22 00:48:05;;;;;;;7.47;3.17;;;;;;;-148.15;100.00;61821.78;4988355;28;20117;-90
2023/08/22 00:50:32;;;;;;;8.15;3.40;;;;;;;-148.15;100.00;61821.78;4990562;28;20542;-87
2023/08/22 00:52:58;;;;;;;6.57;3.10;;;;;;;-148.15;100.00;61821.78;4990001;28;20034;-88
2023/08/22 00:55:23;;;;;;;6.53;2.90;;;;;;;-148.15;100.00;61821.78;4990260;28;20048;-87
2023/08/22 00:57:48;;;;;;;5.57;3.20;;;;;;;-148.15;100.00;61821.78;4989810;28;20093;-88
2023/08/22 01:00:14;;;;;;;5.77;3.17;;;;;;;-148.15;100.00;61821.78;4990577;28;20565;-91
2023/08/22 01:02:39;;;;;;;6.07;3.13;;;;;;;-148.15;100.00;61821.78;4989470;28;20030;-89
2023/08/22 01:05:05;;;;;;;6.95;3.30;;;;;;;-148.15;100.00;61821.78;4990578;28;20632;-88
2023/08/22 01:08:02;;;;;;;4.95;3.00;;;;;;;-148.15;100.00;61821.78;4979542;28;20039;-88
2023/08/22 01:10:38;;;;;;;7.83;3.40;;;;;;;-148.15;100.00;61821.78;4974570;28;20042;-88
2023/08/22 01:13:09;;;;;;;8.07;3.33;;;;;;;-148.15;100.00;61821.78;4985540;28;20298;-88
2023/08/22 01:15:35;;;;;;;6.07;3.00;;;;;;;-148.15;100.00;61821.78;4972133;28;20042;-88
2023/08/22 01:18:04;;;;;;;7.43;3.70;;;;;;;-148.15;100.00;61821.78;4994273;28;20048;-88
2023/08/22 01:20:30;;;;;;;5.57;3.10;;;;;;;-148.15;100.00;61821.78;4969107;28;20038;-89
2023/08/22 01:22:56;;;;;;;5.18;3.38;;;;;;;-148.15;100.00;61821.78;4990071;28;20030;-89
2023/08/22 01:25:22;;;;;;;6.72;3.25;;;;;;;-148.15;100.00;61821.78;4990748;28;20109;-88
2023/08/22 01:28:08;;;;;;;6.30;3.50;;;;;;;-148.15;100.00;61821.78;4988062;28;20027;-88
2023/08/22 01:30:46;;;;;;;4.28;3.70;;;;;;;-148.15;100.00;61821.78;4989948;28;20042;-91
2023/08/22 01:33:19;;;;;;;4.38;3.42;;;;;;;-148.15;100.00;61821.78;4990439;28;20089;-91
2023/08/22 01:35:48;;;;;;;8.13;3.87;;;;;;;-148.15;100.00;61821.78;4989823;28;20117;-90
2023/08/22 01:38:15;;;;;;;6.80;3.60;;;;;;;-148.15;100.00;61821.78;4974214;28;20366;-90
2023/08/22 01:40:41;;;;;;;5.80;4.10;;;;;;;-148.15;100.00;61821.78;4975732;28;20026;-90
2023/08/22 01:43:07;;;;;;;6.55;4.32;;;;;;;-148.15;100.00;61821.78;4974263;28;20038;-91
2023/08/22 01:45:32;;;;;;;8.93;4.27;;;;;;;-148.15;100.00;61821.78;4986486;28;20030;-90
2023/08/22 01:47:57;;;;;;;13.50;5.22;;;;;;;-148.15;100.00;61821.78;4993503;28;20053;-90
2023/08/22 01:50:23;;;;;;;9.23;4.90;;;;;;;-148.15;100.00;61821.78;4980430;28;20039;-88
2023/08/22 01:52:48;;;;;;;11.37;5.57;;;;;;;-148.15;100.00;61821.78;4974868;28;20047;-90
2023/08/22 01:55:15;;;;;;;11.77;4.80;;;;;;;-148.15;100.00;61821.78;4989947;28;20025;-91
2023/08/22 01:57:40;;;;;;;9.85;5.40;;;;;;;-148.15;100.00;61821.78;4993369;28;20029;-88
2023/08/22 02:00:07;;;;;;;13.20;5.27;;;;;;;-148.15;100.00;61821.78;4992572;28;20171;-88
2023/08/22 02:02:32;;;;;;;12.45;5.47;;;;;;;-148.15;100.00;61821.78;4976413;28;20121;-88
2023/08/22 02:04:57;;;;;;;21.60;6.20;;;;;;;-148.15;100.00;61821.78;4994419;28;20482;-89
2023/08/22 02:07:23;;;;;;;11.80;5.25;;;;;;;-148.15;100.00;61821.78;4992065;28;20033;-88
2023/08/22 02:09:48;;;;;;;11.90;6.10;;;;;;;-148.15;100.00;61821.78;4993964;28;20101;-88
2023/08/22 02:12:13;;;;;;;10.63;5.37;;;;;;;-148.15;100.00;61821.78;4975955;28;20471;-88
2023/08/22 02:14:39;;;;;;;14.07;5.73;;;;;;;-148.15;100.00;61821.78;4974878;28;20518;-88
2023/08/22 02:17:04;;;;;;;15.60;6.23;;;;;;;-148.15;100.00;61821.78;4981075;28;20081;-91
2023/08/22 02:19:29;;;;;;;12.30;6.20;;;;;;;-148.15;100.00;61821.78;4993889;28;20018;-90
2023/08/22 02:21:55;;;;;;;12.60;6.28;;;;;;;-148.15;100.00;61821.78;4992961;28;20050;-91
2023/08/22 02:24:20;;;;;;;15.83;6.27;;;;;;;-148.15;100.00;61821.78;4976146;28;20513;-91
2023/08/22 02:26:47;;;;;;;9.30;5.47;;;;;;;-148.15;100.00;61821.78;4991258;28;20022;-90
2023/08/22 02:29:12;;;;;;;8.30;4.88;;;;;;;-148.15;100.00;61821.78;4977291;28;20078;-91
2023/08/22 02:31:37;;;;;;;12.40;5.20;;;;;;;-148.15;100.00;61821.78;4975859;28;20054;-87
2023/08/22 02:34:03;;;;;;;9.13;5.67;;;;;;;-148.15;100.00;61821.78;4987906;28;20110;-90
2023/08/22 02:36:28;;;;;;;7.30;5.00;;;;;;;-148.15;100.00;61821.78;4996178;28;20088;-90
2023/08/22 02:38:53;;;;;;;7.55;4.97;;;;;;;-148.15;100.00;61821.78;4993545;28;20033;-90
2023/08/22 02:41:19;;;;;;;9.37;5.23;;;;;;;-148.15;100.00;61821.78;4992162;28;20026;-90
2023/08/22 02:43:44;;;;;;;7.60;5.17;;;;;;;-148.15;100.00;61821.78;4990289;28;20022;-90
2023/08/22 02:46:10;;;;;;;8.00;5.37;;;;;;;-148.15;100.00;61821.78;4992326;28;20030;-90
2023/08/22 02:48:35;;;;;;;10.48;5.10;;;;;;;-148.15;100.00;61821.78;4992459;28;20030;-90
2023/08/22 02:51:01;;;;;;;10.33;5.23;;;;;;;-148.15;100.00;61821.78;4992544;28;20405;-91
2023/08/22 02:53:26;;;;;;;8.07;5.33;;;;;;;-148.15;100.00;61821.78;4994998;28;20029;-88
2023/08/22 02:55:51;;;;;;;9.27;5.10;;;;;;;-148.15;100.00;61821.78;4993844;28;20026;-90
2023/08/22 02:58:17;;;;;;;11.70;4.60;;;;;;;-148.15;100.00;61821.78;4993483;28;20289;-90
2023/08/22 03:00:46;;;;;;;10.07;5.00;;;;;;;-148.15;100.00;61821.78;4991088;28;20034;-90
2023/08/22 03:03:12;;;;;;;6.50;4.30;;;;;;;-148.15;100.00;61821.78;4993223;28;20027;-91
2023/08/22 03:05:37;;;;;;;6.97;4.37;;;;;;;-148.15;100.00;61821.78;4990261;28;20451;-90
2023/08/22 03:08:03;;;;;;;7.18;4.72;;;;;;;-148.15;100.00;61821.78;4992466;28;20062;-90
2023/08/22 03:10:28;;;;;;;8.07;4.53;;;;;;;-148.15;100.00;61821.78;4992089;28;20118;-91
2023/08/22 03:12:53;;;;;;;8.03;4.57;;;;;;;-148.15;100.00;61821.78;4992420;28;20033;-91
2023/08/22 03:15:19;;;;;;;9.07;4.63;;;;;;;-148.15;100.00;61821.78;4990575;28;20034;-90
2023/08/22 03:17:44;;;;;;;7.63;4.53;;;;;;;-148.15;100.00;61821.78;4991421;28;20522;-91
2023/08/22 03:20:10;;;;;;;6.37;4.13;;;;;;;-148.15;100.00;61821.78;4992025;28;20038;-90
2023/08/22 03:22:36;;;;;;;9.63;4.55;;;;;;;-148.15;100.00;61821.78;4990070;28;20030;-90
2023/08/22 03:25:01;;;;;;;7.83;4.53;;;;;;;-148.15;100.00;61821.78;4992026;28;20033;-91
2023/08/22 03:27:26;;;;;;;7.43;4.80;;;;;;;-148.15;100.00;61821.78;4992041;28;20040;-90
2023/08/22 03:29:52;;;;;;;7.17;4.77;;;;;;;-148.15;100.00;61821.78;4991666;28;20137;-91
2023/08/22 03:32:17;;;;;;;7.28;5.07;;;;;;;-148.15;100.00;61821.78;4991545;28;20026;-90
2023/08/22 03:34:42;;;;;;;8.23;4.57;;;;;;;-148.15;100.00;61821.78;4991373;28;20085;-90
2023/08/22 03:37:08;;;;;;;6.30;4.43;;;;;;;-148.15;100.00;61821.78;4991268;28;20077;-90
2023/08/22 03:39:33;;;;;;;8.70;5.70;;;;;;;-148.15;100.00;61821.78;4989265;28;20121;-90
2023/08/22 03:41:58;;;;;;;11.17;5.40;;;;;;;-148.15;100.00;61821.78;4991935;28;20030;-90
2023/08/22 03:44:24;;;;;;;9.23;5.45;;;;;;;-148.15;100.00;61821.78;4991770;28;20030;-91
2023/08/22 03:46:49;;;;;;;9.87;5.57;;;;;;;-148.15;100.00;61821.78;4990541;28;20490;-90
2023/08/22 03:49:17;;;;;;;10.47;5.47;;;;;;;-148.15;100.00;61821.78;4985748;28;20103;-90
2023/08/22 03:51:42;;;;;;;8.13;5.72;;;;;;;-148.15;100.00;61821.78;4973158;28;20475;-90
2023/08/22 03:54:08;;;;;;;10.47;5.67;;;;;;;-148.15;100.00;61821.78;4975923;28;20026;-91
2023/08/22 03:56:33;;;;;;;11.60;5.90;;;;;;;-148.15;100.00;61821.78;4992320;28;20482;-90
2023/08/22 03:58:58;;;;;;;9.13;5.45;;;;;;;-148.15;100.00;61821.78;4991583;28;20488;-91
2023/08/22 04:01:24;;;;;;;11.67;5.27;;;;;;;-148.15;100.00;61821.78;4991291;28;20070;-91
2023/08/22 04:03:49;;;;;;;8.70;5.20;;;;;;;-148.15;100.00;61821.78;4991128;28;20026;-90
2023/08/22 04:06:14;;;;;;;8.20;5.30;;;;;;;-148.15;100.00;61821.78;4990406;28;20018;-90
2023/08/22 04:08:40;;;;;;;8.13;5.17;;;;;;;-148.15;100.00;61821.78;4991127;28;20068;-90
2023/08/22 04:11:05;;;;;;;12.30;5.50;;;;;;;-148.15;100.00;61821.78;4989643;28;20038;-90
2023/08/22 04:13:30;;;;;;;8.67;5.20;;;;;;;-148.15;100.00;61821.78;4991166;28;20037;-90
2023/08/22 04:15:56;;;;;;;8.97;5.43;;;;;;;-148.15;100.00;61821.78;4990363;28;20517;-90
2023/08/22 04:18:21;;;;;;;7.47;4.73;;;;;;;-148.15;100.00;61821.78;4989544;28;20542;-90
2023/08/22 04:20:46;;;;;;;8.75;5.13;;;;;;;-148.15;100.00;61821.78;4971722;28;20498;-91
2023/08/22 04:23:12;;;;;;;9.60;4.97;;;;;;;-148.15;100.00;61821.78;4971405;28;20045;-90
2023/08/22 04:25:37;;;;;;;6.33;5.70;;;;;;;-148.15;100.00;61821.78;4971596;28;20384;-90
2023/08/22 04:28:04;;;;;;;11.70;5.22;;;;;;;-148.15;100.00;61821.78;4981798;28;20089;-90
2023/08/22 04:30:30;;;;;;;9.50;5.37;;;;;;;-148.15;100.00;61821.78;4991130;28;20383;-91
2023/08/22 04:32:56;;;;;;;7.38;5.72;;;;;;;-148.15;100.00;61821.78;4982629;28;20027;-90
2023/08/22 04:35:21;;;;;;;8.02;5.20;;;;;;;-148.15;100.00;61821.78;4971797;28;20057;-91
2023/08/22 04:37:47;;;;;;;10.53;5.70;;;;;;;-148.15;100.00;61821.78;4970725;28;20046;-91
2023/08/22 04:40:12;;;;;;;9.63;5.10;;;;;;;-148.15;100.00;61821.78;4971926;28;20364;-90
2023/08/22 04:42:38;;;;;;;7.93;5.40;;;;;;;-148.15;100.00;61821.78;4953629;28;20485;-91
2023/08/22 04:45:03;;;;;;;7.40;5.50;;;;;;;-148.15;100.00;61821.78;4982856;28;20030;-91
2023/08/22 04:47:29;;;;;;;6.60;5.53;;;;;;;-148.15;100.00;61821.78;4971061;28;20027;-91
2023/08/22 04:49:54;;;;;;;9.77;5.93;;;;;;;-148.15;100.00;61821.78;4983484;28;20034;-90
2023/08/22 04:52:19;;;;;;;6.88;4.82;;;;;;;-148.15;100.00;61821.78;4974227;28;20053;-91
2023/08/22 04:54:44;;;;;;;9.80;5.47;;;;;;;-148.15;100.00;61821.78;4971359;28;20115;-91
2023/08/22 04:57:10;;;;;;;11.03;5.10;;;;;;;-148.15;100.00;61821.78;4982909;28;20679;-90
2023/08/22 04:59:35;;;;;;;9.27;4.83;;;;;;;-148.15;100.00;61821.78;4988764;28;20034;-91
2023/08/22 05:02:00;;;;;;;5.37;4.53;;;;;;;-148.15;100.00;61821.78;4990494;28;20483;-91
2023/08/22 05:04:26;;;;;;;7.82;4.90;;;;;;;-148.15;100.00;61821.78;4990838;28;20030;-91
2023/08/22 05:06:51;;;;;;;7.47;5.07;;;;;;;-148.15;100.00;61821.78;4972740;28;20031;-91
2023/08/22 05:09:17;;;;;;;8.83;5.03;;;;;;;-148.15;100.00;61821.78;4976617;28;20424;-91
2023/08/22 05:11:43;;;;;;;7.07;4.70;;;;;;;-148.15;100.00;61821.78;4988600;28;20034;-91
2023/08/22 05:14:09;;;;;;;7.82;4.75;;;;;;;-148.15;100.00;61821.78;4998042;28;20049;-91
2023/08/22 05:16:35;;;;;;;8.77;5.15;;;;;;;-148.15;100.00;61821.78;4997699;28;20030;-90
2023/08/22 05:19:01;;;;;;;8.27;4.70;;;;;;;-148.15;100.00;61821.78;4994670;28;20023;-91
2023/08/22 05:21:26;;;;;;;12.73;5.23;;;;;;;-148.15;100.00;61821.78;4989044;28;20088;-90
2023/08/22 05:23:51;;;;;;;9.70;5.38;;;;;;;-148.15;100.00;61821.78;4994335;28;20030;-89
2023/08/22 05:26:17;;;;;;;8.10;5.70;;;;;;;-148.15;100.00;61821.78;4992758;28;20478;-89
2023/08/22 05:28:42;;;;;;;9.57;6.07;;;;;;;-148.15;100.00;61821.78;4990344;28;20404;-90
2023/08/22 05:31:08;;;;;;;9.20;6.20;;;;;;;-148.15;100.00;61821.78;4994560;28;20049;-91
2023/08/22 05:33:33;;;;;;;10.80;6.03;;;;;;;-148.15;100.00;61821.78;4983380;28;20029;-94
2023/08/22 05:35:59;;;;;;;13.07;6.30;;;;;;;-148.15;100.00;61821.78;4975912;28;20037;-92
2023/08/22 05:38:24;;;;;;;9.52;6.13;;;;;;;-148.15;100.00;61821.78;4979436;28;20052;-94
2023/08/22 05:40:49;;;;;;;10.70;6.23;;;;;;;-148.15;100.00;61821.78;4994230;28;20026;-93
2023/08/22 05:43:15;;;;;;;10.60;6.90;;;;;;;-148.15;100.00;61821.78;4987849;28;20590;-93
2023/08/22 05:45:40;;;;;;;10.37;6.47;;;;;;;-148.15;100.00;61821.78;4993986;28;20434;-94
2023/08/22 05:48:06;;;;;;;9.25;6.63;;;;;;;-148.15;100.00;61821.78;4984659;28;20030;-93
2023/08/22 05:50:31;;;;;;;7.67;6.73;;;;;;;-148.15;100.00;61821.78;4992348;28;20033;-94
2023/08/22 05:52:57;;;;;;;8.93;6.95;;;;;;;-148.15;100.00;61821.78;4990183;28;20482;-93
2023/08/22 05:55:22;;;;;;;12.90;7.47;;;;;;;-148.15;100.00;61821.78;4990685;28;20022;-93
2023/08/22 05:57:47;;;;;;;12.27;7.60;;;;;;;-148.15;100.00;61821.78;4976928;28;20031;-93
2023/08/22 06:00:13;;;;;;;14.07;8.50;;;;;;;-148.15;100.00;61821.78;4990769;28;20029;-93
2023/08/22 06:02:39;;;;;;;11.18;7.82;;;;;;;-148.15;100.00;61821.78;4987657;28;20068;-94
2023/08/22 06:05:06;;;;;;;12.97;8.40;;;;;;;-148.15;100.00;61821.78;4969945;28;20439;-94
2023/08/22 06:07:32;;;;;;;15.02;8.63;;;;;;;-148.15;100.00;61821.78;4979241;28;20065;-95
2023/08/22 06:09:58;;;;;;;14.23;9.00;;;;;;;-148.15;100.00;61821.78;4991147;28;20038;-96
2023/08/22 06:12:24;;;;;;;13.05;8.27;;;;;;;-148.15;100.00;61821.78;4960182;28;20093;-96
2023/08/22 06:14:49;;;;;;;19.77;10.27;;;;;;;-148.15;100.00;61821.78;4976261;28;20018;-96
2023/08/22 06:17:15;;;;;;;18.50;10.90;;;;;;;-148.15;100.00;61821.78;4981444;28;20034;-96
2023/08/22 06:19:40;;;;;;;15.37;9.70;;;;;;;-148.15;100.00;61821.78;4984856;28;20096;-95
2023/08/22 06:22:05;;;;;;;18.90;11.57;;;;;;;-148.15;100.00;61821.78;4995047;28;20026;-95
2023/08/22 06:24:31;;;;;;;13.70;9.43;;;;;;;-148.15;100.00;61821.78;4993387;28;20515;-96
2023/08/22 06:26:56;;;;;;;20.00;10.60;;;;;;;-148.15;100.00;61821.78;4995811;28;20026;-95
2023/08/22 06:29:21;;;;;;;19.83;10.20;;;;;;;-148.15;100.00;61821.78;4992906;28;20435;-96
2023/08/22 06:31:47;;;;;;;23.43;9.93;;;;;;;-148.15;100.00;61821.78;4978081;28;20027;-95
2023/08/22 06:34:12;;;;;;;18.53;10.20;;;;;;;-148.15;100.00;61821.78;4990229;28;20025;-95
2023/08/22 06:36:37;;;;;;;16.70;9.77;;;;;;;-148.15;100.00;61821.78;4983873;28;20042;-96
2023/08/22 06:39:05;;;;;;;15.07;8.87;;;;;;;-148.15;100.00;61821.78;4975778;28;20110;-94
2023/08/22 06:41:30;;;;;;;14.30;8.93;;;;;;;-148.15;100.00;61821.78;4976094;28;20757;-95
2023/08/22 06:43:55;;;;;;;14.68;7.88;;;;;;;-148.15;100.00;61821.78;4976971;28;20029;-96
2023/08/22 06:46:21;;;;;;;13.73;7.30;;;;;;;-148.15;100.00;61821.78;4979201;28;20023;-95
2023/08/22 06:48:48;;;;;;;12.27;7.07;;;;;;;-148.15;100.00;61821.78;4989893;28;20085;-96
2023/08/22 06:51:14;;;;;;;10.88;6.22;;;;;;;-148.15;100.00;61821.78;4997539;28;20481;-95
2023/08/22 06:53:39;;;;;;;11.50;6.17;;;;;;;-148.15;100.00;61821.78;5002156;28;20061;-95
2023/08/22 06:56:04;;;;;;;9.43;5.50;;;;;;;-148.15;100.00;61821.78;4997689;28;20031;-96
2023/08/22 06:58:30;;;;;;;15.37;6.20;;;;;;;-148.15;100.00;61821.78;4997417;28;20536;-94
2023/08/22 07:00:55;;;;;;;12.98;6.47;;;;;;;-148.15;100.00;61821.78;4996341;28;20031;-96
2023/08/22 07:03:21;;;;;;;13.27;6.77;;;;;;;-148.15;100.00;61821.78;4994403;28;20080;-95
2023/08/22 07:05:52;;;;;;;13.57;6.57;;;;;;;-148.15;100.00;61821.78;4993187;28;20025;-96
2023/08/22 07:08:18;;;;;;;12.20;6.72;;;;;;;-148.15;100.00;61821.78;4994924;28;20030;-96
2023/08/22 07:10:43;;;;;;;12.87;7.27;;;;;;;-148.15;100.00;61821.78;4993867;28;20034;-95
2023/08/22 07:13:08;;;;;;;14.03;7.87;;;;;;;-148.15;100.00;61821.78;4994000;28;20028;-96
2023/08/22 07:15:34;;;;;;;14.97;7.90;;;;;;;-148.15;100.00;61821.78;4995415;28;20062;-95
2023/08/22 07:18:00;;;;;;;12.23;6.33;;;;;;;-148.15;100.00;61821.78;4993698;28;20305;-94
2023/08/22 07:20:30;;;;;;;14.68;6.55;;;;;;;-148.15;100.00;61821.78;4996545;28;20048;-95
2023/08/22 07:22:56;;;;;;;10.60;5.70;;;;;;;-148.15;100.00;61821.78;4975680;28;20101;-94
2023/08/22 07:25:21;;;;;;;10.63;5.93;;;;;;;-148.15;100.00;61821.78;4974239;28;20282;-94
2023/08/22 07:27:46;;;;;;;10.70;6.03;;;;;;;-148.15;100.00;61821.78;4978177;28;20057;-95
2023/08/22 07:30:12;;;;;;;12.67;5.93;;;;;;;-148.15;100.00;61821.78;4994097;28;20533;-93
2023/08/22 07:32:37;;;;;;;13.93;6.28;;;;;;;-148.15;100.00;61821.78;4993948;28;20164;-94
2023/08/22 07:35:03;;;;;;;10.33;5.10;;;;;;;-148.15;100.00;61821.78;4994563;28;20029;-94
2023/08/22 07:37:28;;;;;;;5.83;4.17;;;;;;;-148.15;100.00;61821.78;4992786;28;20026;-95
2023/08/22 07:39:55;;;;;;;8.75;4.15;;;;;;;-148.15;100.00;61821.78;4975771;28;20386;-95
2023/08/22 07:42:20;;;;;;;5.80;3.10;;;;;;;-148.15;100.00;61821.78;4994000;28;20030;-94
2023/08/22 07:44:45;;;;;;;7.60;3.00;;;;;;;-148.15;100.00;61821.78;4964805;28;20808;-94
2023/08/22 07:47:11;;;;;;;6.60;3.07;;;;;;;-148.15;100.00;61821.78;4983632;28;20027;-96
2023/08/22 07:49:36;;;;;;;6.13;3.23;;;;;;;-148.15;100.00;61821.78;4993647;28;20100;-94
2023/08/22 07:52:02;;;;;;;9.17;3.87;;;;;;;-148.15;100.00;61821.78;5001661;28;20509;-95
2023/08/22 07:54:29;;;;;;;6.35;4.10;;;;;;;-148.15;100.00;61821.78;5014984;28;20041;-95
2023/08/22 07:56:54;;;;;;;6.65;3.88;;;;;;;-148.15;100.00;61821.78;4995377;28;20069;-93
2023/08/22 07:59:20;;;;;;;8.03;3.60;;;;;;;-148.15;100.00;61821.78;4979299;28;20027;-96
2023/08/22 08:01:45;;;;;;;10.82;4.65;;;;;;;-148.15;100.00;61821.78;4958885;28;20018;-95
2023/08/22 08:04:10;;;;;;;8.90;3.60;;;;;;;-148.15;100.00;61821.78;4994547;28;20451;-95
2023/08/22 08:06:36;;;;;;;11.70;4.00;;;;;;;-148.15;100.00;61821.78;4994327;28;20096;-95
2023/08/22 08:09:05;;;;;;;7.22;4.05;;;;;;;-148.15;100.00;61821.78;5002395;28;20019;-95
2023/08/22 08:11:31;;;;;;;8.60;4.70;;;;;;;-148.15;100.00;61821.78;5006526;28;20137;-95
2023/08/22 08:13:57;;;;;;;7.90;4.78;;;;;;;-148.15;100.00;61821.78;4968117;28;20280;-95
2023/08/22 08:16:23;;;;;;;9.93;5.20;;;;;;;-148.15;100.00;61821.78;4985736;28;20022;-94
2023/08/22 08:18:51;;;;;;;11.90;5.15;;;;;;;-148.15;100.00;61821.78;4969736;28;20015;-94
2023/08/22 08:21:17;;;;;;;12.13;5.22;;;;;;;-148.15;100.00;61821.78;4978288;28;20073;-95
2023/08/22 08:23:44;;;;;;;8.37;5.33;;;;;;;-148.15;100.00;61821.78;4974906;28;20027;-96
2023/08/22 08:26:10;;;;;;;8.07;4.97;;;;;;;-148.15;100.00;61821.78;4973976;28;20114;-96
2023/08/22 08:28:35;;;;;;;9.25;4.72;;;;;;;-148.15;100.00;61821.78;4984120;28;20049;-94
2023/08/22 08:31:01;;;;;;;12.50;5.40;;;;;;;-148.15;100.00;61821.78;4979445;28;20089;-96
2023/08/22 08:33:26;;;;;;;9.73;5.10;;;;;;;-148.15;100.00;61821.78;4973684;28;20022;-95
2023/08/22 08:35:51;;;;;;;11.83;5.13;;;;;;;-148.15;100.00;61821.78;4995844;28;20064;-95
2023/08/22 08:38:17;;;;;;;10.18;5.25;;;;;;;-148.15;100.00;61821.78;4994348;28;20023;-95
2023/08/22 08:40:43;;;;;;;9.13;5.03;;;;;;;-148.15;100.00;61821.78;4994079;28;20033;-95
2023/08/22 08:43:08;;;;;;;10.77;5.57;;;;;;;-148.15;100.00;61821.78;4975858;28;20018;-95
2023/08/22 08:45:34;;;;;;;9.87;5.27;;;;;;;-148.15;100.00;61821.78;4991342;28;20042;-96
2023/08/22 08:48:01;;;;;;;11.52;5.47;;;;;;;-148.15;100.00;61821.78;4955738;28;20038;-96
2023/08/22 08:50:27;;;;;;;9.97;4.63;;;;;;;-148.15;100.00;61821.78;4957054;28;20019;-96
2023/08/22 08:52:53;;;;;;;7.97;4.90;;;;;;;-148.15;100.00;61821.78;4973263;28;20706;-96
2023/08/22 08:55:18;;;;;;;12.73;4.70;;;;;;;-148.15;100.00;61821.78;4973975;28;20039;-96
2023/08/22 08:57:46;;;;;;;9.40;4.03;;;;;;;-148.15;100.00;61821.78;4974561;28;20030;-95
2023/08/22 09:00:14;;;;;;;7.90;4.27;;;;;;;-148.15;100.00;61821.78;4957877;28;20086;-96
2023/08/22 09:02:39;;;;;;;10.80;4.90;;;;;;;-148.15;100.00;61821.78;4978705;28;20026;-96
2023/08/22 09:05:04;;;;;;;10.00;4.53;;;;;;;-148.15;100.00;61821.78;4977966;28;20188;-96
2023/08/22 09:07:30;;;;;;;8.53;4.63;;;;;;;-148.15;100.00;61821.78;4992322;28;20282;-96
2023/08/22 09:09:58;;;;;;;11.50;4.20;;;;;;;-148.15;100.00;61821.78;4975487;28;20030;-96
2023/08/22 09:12:31;;;;;;;11.03;4.80;;;;;;;-148.15;100.00;61821.78;4968619;28;20100;-96
2023/08/22 09:14:56;;;;;;;11.05;4.40;;;;;;;-148.15;100.00;61821.78;4980660;28;20027;-96
2023/08/22 09:17:22;;;;;;;10.65;4.85;;;;;;;-148.15;100.00;61821.78;4988186;28;20390;-96
2023/08/22 09:19:47;;;;;;;10.30;5.83;;;;;;;-148.15;100.00;61821.78;4996950;28;20113;-96
2023/08/22 09:22:14;;;;;;;11.90;4.80;;;;;;;-148.15;100.00;61821.78;4995148;28;20508;-96
2023/08/22 09:24:50;;;;;;;10.98;5.32;;;;;;;-148.15;100.00;61821.78;4994073;28;20026;-95
2023/08/22 09:27:15;;;;;;;12.57;5.40;;;;;;;-148.15;100.00;61821.78;4977261;28;20018;-96
2023/08/22 09:29:42;;;;;;;9.40;4.73;;;;;;;-148.15;100.00;61821.78;4983118;28;20293;-95
2023/08/22 09:32:09;;;;;;;11.63;5.93;;;;;;;-148.15;100.00;61821.78;4989027;28;20217;-96
2023/08/22 09:34:35;;;;;;;6.95;5.20;;;;;;;-148.15;100.00;61821.78;4993895;28;20029;-96
2023/08/22 09:37:01;;;;;;;12.38;6.18;;;;;;;-148.15;100.00;61821.78;4977212;28;20027;-96
2023/08/22 09:39:30;;;;;;;13.47;6.97;;;;;;;-148.15;100.00;61821.78;4982492;28;20049;-96
2023/08/22 09:42:00;;;;;;;12.73;6.27;;;;;;;-148.15;100.00;61821.78;4979238;28;20285;-96
2023/08/22 09:44:27;;;;;;;14.13;7.78;;;;;;;-148.15;100.00;61821.78;4996474;28;20405;-96
2023/08/22 09:46:55;;;;;;;12.93;7.40;;;;;;;-148.15;100.00;61821.78;4982561;28;20453;-96
2023/08/22 09:49:21;;;;;;;15.80;6.82;;;;;;;-148.15;100.00;61821.78;4981260;28;20089;-96
2023/08/22 09:51:48;;;;;;;11.55;7.43;;;;;;;-148.15;100.00;61821.78;4982399;28;20023;-96
2023/08/22 09:54:14;;;;;;;14.43;7.32;;;;;;;-148.15;100.00;61821.78;5005711;28;20029;-96
2023/08/22 09:56:42;;;;;;;13.13;7.00;;;;;;;-148.15;100.00;61821.78;5005773;28;20026;-95
2023/08/22 09:59:13;;;;;;;13.88;7.13;;;;;;;-148.15;100.00;61821.78;5004311;28;20041;-96
2023/08/22 10:01:39;;;;;;;13.30;7.27;;;;;;;-148.15;100.00;61821.78;4996389;28;20041;-96
2023/08/22 10:04:05;;;;;;;17.40;7.20;;;;;;;-148.15;100.00;61821.78;4967143;28;20304;-96
2023/08/22 10:06:35;;;;;;;11.52;6.88;;;;;;;-148.15;100.00;61821.78;4963899;28;20031;-96
2023/08/22 10:09:10;;;;;;;15.57;6.78;;;;;;;-148.15;100.00;61821.78;4966766;28;20469;-96
2023/08/22 10:11:41;;;;;;;17.50;7.00;;;;;;;-148.15;100.00;61821.78;4967841;28;20071;-96
2023/08/22 10:14:23;;;;;;;17.67;6.80;;;;;;;-148.15;100.00;61821.78;4967702;28;20051;-96
2023/08/22 10:16:48;;;;;;;10.65;6.32;;;;;;;-148.15;100.00;61821.78;4965356;28;20023;-94
2023/08/22 10:19:16;;;;;;;12.13;6.57;;;;;;;-148.15;100.00;61821.78;4999933;28;20069;-96
2023/08/22 10:21:43;;;;;;;8.77;5.45;;;;;;;-148.15;100.00;61821.78;5001491;28;20026;-96
2023/08/22 10:24:19;;;;;;;11.30;5.47;;;;;;;-148.15;100.00;61821.78;4993173;28;20302;-95
2023/08/22 10:26:59;;;;;;;9.75;4.38;;;;;;;-148.15;100.00;61821.78;4995439;28;20034;-96
2023/08/22 10:29:25;;;;;;;9.50;3.57;;;;;;;-148.15;100.00;61821.78;5008321;28;20034;-96
2023/08/22 10:32:00;;;;;;;9.50;3.30;;;;;;;-148.15;100.00;61821.78;5016623;28;20288;-96
2023/08/22 10:34:34;;;;;;;8.98;3.55;;;;;;;-148.15;100.00;61821.78;4995105;28;20022;-96
2023/08/22 10:37:13;;;;;;;9.95;3.65;;;;;;;-148.15;100.00;61821.78;4986616;28;20031;-96
2023/08/22 10:39:40;;;;;;;6.43;3.20;;;;;;;-148.15;100.00;61821.78;4982979;28;20030;-96
2023/08/22 10:42:06;;;;;;;4.20;2.40;;;;;;;-148.15;100.00;61821.78;4986941;28;20046;-95
2023/08/22 10:44:36;;;;;;;3.60;2.03;;;;;;;-148.15;100.00;61821.78;4985016;28;20054;-96
2023/08/22 10:47:30;;;;;;;4.93;2.30;;;;;;;-148.15;100.00;61821.78;4966046;28;20278;-96
2023/08/22 10:49:57;;;;;;;10.35;3.05;;;;;;;-148.15;100.00;61821.78;4970877;28;20019;-96
2023/08/22 10:52:33;;;;;;;7.78;3.25;;;;;;;-148.15;100.00;61821.78;4992422;28;20381;-96
2023/08/22 10:55:20;;;;;;;8.05;3.05;;;;;;;-148.15;100.00;61821.78;4987149;28;20030;-96
2023/08/22 10:57:54;;;;;;;5.78;2.70;;;;;;;-148.15;100.00;61821.78;5005849;28;20019;-96
2023/08/22 11:00:22;;;;;;;7.80;2.65;;;;;;;-148.15;100.00;61821.78;4981296;28;20045;-96
2023/08/22 11:02:57;;;;;;;9.40;3.67;;;;;;;-148.15;100.00;61821.78;5003183;28;20113;-96
2023/08/22 11:05:30;;;;;;;5.00;2.53;;;;;;;-148.15;100.00;61821.78;4985028;28;20493;-96